createdAt,value
2018-09-30T00:00:22.709Z,98672.56
2018-09-30T00:02:53.323Z,98672.27
2018-09-30T00:05:22.791Z,98670.95
2018-09-30T00:07:53.248Z,98669.63
2018-09-30T00:10:22.744Z,98665.75
2018-09-30T00:12:53.248Z,98662.91
2018-09-30T00:15:22.691Z,98660.09
2018-09-30T00:17:53.369Z,98657.26
2018-09-30T00:20:22.763Z,98653.21
2018-09-30T00:22:53.280Z,98636.78
2018-09-30T00:25:28.000Z,98639.03
2018-09-30T00:27:57.475Z,98636.20
2018-09-30T00:30:26.936Z,98609.91
2018-09-30T00:32:56.364Z,98636.27
2018-09-30T00:35:25.756Z,98631.44
2018-09-30T00:37:55.221Z,98629.86
2018-09-30T00:40:24.639Z,98625.03
2018-09-30T00:42:54.046Z,98623.36
2018-09-30T00:45:23.469Z,98616.72
2018-09-30T00:47:53.773Z,98625.41
2018-09-30T00:50:23.156Z,98624.93
2018-09-30T00:52:53.660Z,98617.91
2018-09-30T00:55:23.151Z,98615.31
2018-09-30T00:57:53.776Z,98621.81
2018-09-30T01:00:23.167Z,98617.80
2018-09-30T01:02:53.810Z,98615.03
2018-09-30T01:05:23.214Z,98613.42
2018-09-30T01:07:53.884Z,98600.87
2018-09-30T01:10:23.407Z,98603.81
2018-09-30T01:12:53.829Z,98596.48
2018-09-30T01:15:23.208Z,98589.55
2018-09-30T01:17:53.872Z,98588.73
2018-09-30T01:20:23.340Z,98586.27
2018-09-30T01:22:53.882Z,98579.57
2018-09-30T01:25:23.300Z,98579.33
2018-09-30T01:27:53.888Z,98573.03
2018-09-30T01:30:23.371Z,98573.02
2018-09-30T01:32:53.851Z,98566.94
2018-09-30T01:35:23.239Z,98570.11
2018-09-30T01:37:53.906Z,98568.81
2018-09-30T01:40:23.315Z,98568.70
2018-09-30T01:42:53.827Z,98558.69
2018-09-30T01:45:23.260Z,98558.27
2018-09-30T01:47:53.882Z,98558.31
2018-09-30T01:50:23.275Z,98550.02
2018-09-30T01:52:56.009Z,98554.71
2018-09-30T01:55:25.434Z,98548.55
2018-09-30T01:57:54.836Z,98546.13
2018-09-30T02:00:24.297Z,98539.27
2018-09-30T02:02:53.895Z,98543.89
2018-09-30T02:05:23.311Z,98537.17
2018-09-30T02:07:53.960Z,98508.09
2018-09-30T02:10:23.369Z,98533.20
2018-09-30T02:12:54.007Z,98531.33
2018-09-30T02:15:23.475Z,98535.60
2018-09-30T02:17:53.927Z,98531.19
2018-09-30T02:20:23.354Z,98530.70
2018-09-30T02:22:53.996Z,98519.80
2018-09-30T02:25:23.447Z,98514.34
2018-09-30T02:27:53.967Z,98514.23
2018-09-30T02:30:23.403Z,98514.94
2018-09-30T02:32:53.908Z,98487.02
2018-09-30T02:35:23.325Z,98509.51
2018-09-30T02:37:53.971Z,98502.84
2018-09-30T02:40:23.452Z,98463.59
2018-09-30T02:43:00.598Z,98493.69
2018-09-30T02:45:29.996Z,98490.77
2018-09-30T02:47:59.369Z,98486.64
2018-09-30T02:50:28.828Z,98435.64
2018-09-30T02:52:58.236Z,98478.31
2018-09-30T02:55:27.626Z,98476.53
2018-09-30T02:57:57.010Z,98474.90
2018-09-30T03:00:26.471Z,98475.45
2018-09-30T03:02:55.853Z,98473.00
2018-09-30T03:05:25.295Z,98462.66
2018-09-30T03:07:59.835Z,98465.27
2018-09-30T03:10:29.258Z,98466.75
2018-09-30T03:12:58.647Z,98455.48
2018-09-30T03:15:28.103Z,98460.99
2018-09-30T03:17:57.504Z,98453.78
2018-09-30T03:20:26.923Z,98444.75
2018-09-30T03:22:56.488Z,98448.39
2018-09-30T03:25:25.891Z,98446.87
2018-09-30T03:27:55.276Z,98440.36
2018-09-30T03:30:24.696Z,98436.46
2018-09-30T03:32:54.096Z,98442.27
2018-09-30T03:35:23.491Z,98433.75
2018-09-30T03:37:54.056Z,98432.75
2018-09-30T03:40:23.517Z,98434.53
2018-09-30T03:42:54.084Z,98437.80
2018-09-30T03:45:23.468Z,98427.84
2018-09-30T03:47:54.107Z,98432.70
2018-09-30T03:50:23.509Z,98435.08
2018-09-30T03:52:54.054Z,98435.20
2018-09-30T03:55:23.444Z,98435.57
2018-09-30T03:57:54.076Z,98436.20
2018-09-30T04:00:23.480Z,98439.95
2018-09-30T04:02:54.012Z,98432.52
2018-09-30T04:05:23.489Z,98430.06
2018-09-30T04:07:54.011Z,98422.63
2018-09-30T04:10:23.461Z,98424.82
2018-09-30T04:12:54.088Z,98423.19
2018-09-30T04:15:23.491Z,98418.09
2018-09-30T04:17:53.999Z,98414.72
2018-09-30T04:20:23.414Z,98414.46
2018-09-30T04:22:54.036Z,98418.14
2018-09-30T04:25:23.436Z,98415.50
2018-09-30T04:27:54.056Z,98412.08
2018-09-30T04:30:23.495Z,98406.58
2018-09-30T04:32:54.011Z,98405.27
2018-09-30T04:35:23.411Z,98413.14
2018-09-30T04:37:54.051Z,98402.30
2018-09-30T04:40:23.579Z,98408.32
2018-09-30T04:42:54.364Z,98404.75
2018-09-30T04:45:23.782Z,98404.75
2018-09-30T04:47:54.233Z,98412.33
2018-09-30T04:50:23.654Z,98385.72
2018-09-30T04:52:54.270Z,98404.86
2018-09-30T04:55:23.676Z,98400.13
2018-09-30T04:57:54.284Z,98397.88
2018-09-30T05:00:23.747Z,98391.34
2018-09-30T05:08:00.492Z,98381.83
2018-09-30T05:10:29.899Z,98380.08
2018-09-30T05:12:59.372Z,98379.52
2018-09-30T05:15:29.167Z,98385.16
2018-09-30T05:17:58.593Z,98390.69
2018-09-30T05:20:28.016Z,98388.52
2018-09-30T05:22:57.447Z,98385.99
2018-09-30T05:25:26.900Z,98387.84
2018-09-30T05:27:56.312Z,98384.50
2018-09-30T05:30:25.708Z,98388.65
2018-09-30T05:32:55.862Z,98381.92
2018-09-30T05:35:26.288Z,98384.36
2018-09-30T05:37:56.683Z,98377.77
2018-09-30T05:40:27.105Z,98379.91
2018-09-30T05:42:56.599Z,98373.81
2018-09-30T05:45:26.028Z,98372.92
2018-09-30T05:47:56.802Z,98366.59
2018-09-30T05:50:27.282Z,98376.98
2018-09-30T05:52:57.841Z,98372.53
2018-09-30T05:55:28.697Z,98370.53
2018-09-30T05:57:58.347Z,98369.67
2018-09-30T06:00:28.732Z,98373.44
2018-09-30T06:02:59.159Z,98370.43
2018-09-30T06:05:29.769Z,98366.72
2018-09-30T06:07:59.789Z,98369.87
2018-09-30T06:10:30.282Z,98362.85
2018-09-30T06:13:00.675Z,98360.98
2018-09-30T06:15:31.237Z,98364.07
2018-09-30T06:18:01.667Z,98365.09
2018-09-30T06:20:32.401Z,98357.72
2018-09-30T06:23:03.078Z,98360.94
2018-09-30T06:25:32.518Z,98360.59
2018-09-30T06:28:03.415Z,98356.39
2018-09-30T06:30:34.257Z,98358.57
2018-09-30T06:33:05.300Z,98358.55
2018-09-30T06:35:36.261Z,98362.09
2018-09-30T06:38:06.977Z,98362.75
2018-09-30T06:40:37.858Z,98354.84
2018-09-30T06:43:08.750Z,98346.80
2018-09-30T06:45:39.363Z,98347.50
2018-09-30T06:48:08.774Z,98355.41
2018-09-30T06:50:39.370Z,98350.13
2018-09-30T06:53:09.925Z,98354.73
2018-09-30T06:55:39.396Z,98353.91
2018-09-30T06:58:10.080Z,98353.19
2018-09-30T07:00:39.611Z,98351.73
2018-09-30T07:03:09.080Z,98345.22
2018-09-30T07:05:39.582Z,98350.46
2018-09-30T07:08:12.332Z,98350.56
2018-09-30T07:10:41.799Z,98352.22
2018-09-30T07:13:12.764Z,98353.16
2018-09-30T07:15:42.360Z,98354.87
2018-09-30T07:18:11.875Z,98349.34
2018-09-30T07:20:42.485Z,98343.72
2018-09-30T07:23:13.277Z,98345.75
2018-09-30T07:25:44.093Z,98344.39
2018-09-30T07:28:13.551Z,98343.42
2018-09-30T07:30:42.964Z,98341.56
2018-09-30T07:33:12.392Z,98339.29
2018-09-30T07:35:41.792Z,98338.20
2018-09-30T07:38:11.295Z,98340.95
2018-09-30T07:40:40.700Z,98341.44
2018-09-30T07:43:10.200Z,98333.72
2018-09-30T07:45:39.667Z,98330.61
2018-09-30T07:48:09.235Z,98328.40
2018-09-30T07:50:38.815Z,98323.99
2018-09-30T07:53:08.763Z,98333.11
2018-09-30T07:55:38.202Z,98321.30
2018-09-30T07:58:07.627Z,98316.86
2018-09-30T08:00:37.028Z,98314.58
2018-09-30T08:03:06.493Z,98288.22
2018-09-30T08:05:35.958Z,98300.73
2018-09-30T08:08:05.532Z,98299.78
2018-09-30T08:10:34.939Z,98294.00
2018-09-30T08:13:04.403Z,98292.98
2018-09-30T08:15:33.799Z,98291.83
2018-09-30T08:18:03.221Z,98294.20
2018-09-30T08:20:32.619Z,98298.62
2018-09-30T08:23:02.031Z,98291.94
2018-09-30T08:25:31.454Z,98292.11
2018-09-30T08:28:00.864Z,98287.59
2018-09-30T08:30:30.316Z,98285.11
2018-09-30T08:32:59.752Z,98283.55
2018-09-30T08:35:29.147Z,98281.45
2018-09-30T08:38:03.746Z,98278.14
2018-09-30T08:40:38.479Z,98274.34
2018-09-30T08:43:08.146Z,98280.36
2018-09-30T08:45:37.666Z,98272.70
2018-09-30T08:48:07.104Z,98270.59
2018-09-30T08:50:36.568Z,98270.16
2018-09-30T08:53:06.135Z,98269.33
2018-09-30T08:55:35.550Z,98261.59
2018-09-30T08:58:04.981Z,98261.14
2018-09-30T09:00:34.406Z,98270.98
2018-09-30T09:03:03.890Z,98264.50
2018-09-30T09:05:33.231Z,98261.49
2018-09-30T09:08:02.710Z,98260.95
2018-09-30T09:10:32.136Z,98258.80
2018-09-30T09:13:01.548Z,98254.72
2018-09-30T09:15:30.978Z,98257.63
2018-09-30T09:18:00.387Z,98243.41
2018-09-30T09:20:29.817Z,98256.55
2018-09-30T09:22:59.260Z,98249.48
2018-09-30T09:25:28.691Z,98247.70
2018-09-30T09:27:58.157Z,98246.39
2018-09-30T09:30:27.581Z,98241.97
2018-09-30T09:32:57.024Z,98239.23
2018-09-30T09:35:26.456Z,98243.84
2018-09-30T09:37:56.529Z,98233.49
2018-09-30T09:40:25.944Z,98226.88
2018-09-30T09:42:56.459Z,98226.70
2018-09-30T09:45:25.949Z,98222.52
2018-09-30T09:47:56.487Z,98207.80
2018-09-30T09:50:25.963Z,98198.12
2018-09-30T09:52:56.475Z,98198.58
2018-09-30T09:55:25.902Z,98200.77
2018-09-30T09:57:56.565Z,98191.20
2018-09-30T10:00:30.931Z,98190.62
2018-09-30T10:03:00.367Z,98188.73
2018-09-30T10:05:29.800Z,98183.51
2018-09-30T10:07:59.225Z,98184.52
2018-09-30T10:10:28.640Z,98178.06
2018-09-30T10:12:58.138Z,98173.91
2018-09-30T10:15:27.552Z,98170.94
2018-09-30T10:17:57.006Z,98165.53
2018-09-30T10:20:26.464Z,98156.06
2018-09-30T10:22:56.587Z,98159.44
2018-09-30T10:25:26.012Z,98154.32
2018-09-30T10:27:56.545Z,98145.47
2018-09-30T10:30:25.984Z,98142.19
2018-09-30T10:32:56.639Z,98134.56
2018-09-30T10:35:26.055Z,98143.28
2018-09-30T10:37:56.605Z,98144.17
2018-09-30T10:40:26.012Z,98139.73
2018-09-30T10:43:03.280Z,98135.92
2018-09-30T10:45:32.688Z,98127.97
2018-09-30T10:48:02.092Z,98117.75
2018-09-30T10:50:31.552Z,98108.83
2018-09-30T10:53:00.967Z,98104.34
2018-09-30T10:55:30.503Z,98106.03
2018-09-30T10:57:59.927Z,98084.11
2018-09-30T11:00:29.359Z,98085.94
2018-09-30T11:02:58.813Z,98077.38
2018-09-30T11:05:28.215Z,98073.19
2018-09-30T11:07:57.624Z,98072.48
2018-09-30T11:10:27.100Z,98068.10
2018-09-30T11:12:56.632Z,98068.62
2018-09-30T11:15:26.052Z,98062.19
2018-09-30T11:17:56.716Z,98061.80
2018-09-30T11:20:26.144Z,98058.71
2018-09-30T11:22:56.795Z,98044.18
2018-09-30T11:25:26.220Z,98041.42
2018-09-30T11:27:56.843Z,98034.13
2018-09-30T11:30:26.292Z,98029.92
2018-09-30T11:32:56.967Z,98027.98
2018-09-30T11:35:26.392Z,98022.44
2018-09-30T11:37:57.067Z,98019.55
2018-09-30T11:40:26.504Z,98014.34
2018-09-30T11:42:57.092Z,98009.17
2018-09-30T11:45:26.708Z,98003.30
2018-09-30T11:47:57.133Z,98003.59
2018-09-30T11:50:26.551Z,98001.96
2018-09-30T11:52:57.216Z,97998.75
2018-09-30T11:55:26.673Z,97997.77
2018-09-30T11:57:57.172Z,97992.03
2018-09-30T12:00:26.580Z,97989.16
2018-09-30T12:02:57.263Z,97986.47
2018-09-30T12:05:26.696Z,97976.16
2018-09-30T12:07:57.363Z,97976.94
2018-09-30T12:10:26.779Z,97972.16
2018-09-30T12:12:57.562Z,97970.28
2018-09-30T12:15:27.220Z,97955.88
2018-09-30T12:17:57.447Z,97951.05
2018-09-30T12:20:26.860Z,97943.45
2018-09-30T12:22:57.312Z,97938.16
2018-09-30T12:25:26.784Z,97939.42
2018-09-30T12:27:57.447Z,97927.39
2018-09-30T12:30:33.551Z,97923.20
2018-09-30T12:33:02.983Z,97919.40
2018-09-30T12:35:32.380Z,97912.32
2018-09-30T12:38:01.775Z,97902.67
2018-09-30T12:40:31.292Z,97898.22
2018-09-30T12:43:00.708Z,97881.02
2018-09-30T12:45:30.242Z,97888.22
2018-09-30T12:47:59.647Z,97888.19
2018-09-30T12:50:29.040Z,97883.64
2018-09-30T12:52:58.488Z,97880.14
2018-09-30T12:55:27.945Z,97876.36
2018-09-30T12:57:57.742Z,97879.16
2018-09-30T13:00:27.108Z,97868.56
2018-09-30T13:02:57.531Z,97876.12
2018-09-30T13:05:26.942Z,97884.70
2018-09-30T13:07:57.591Z,97882.95
2018-09-30T13:10:27.157Z,97878.63
2018-09-30T13:12:59.263Z,97883.34
2018-09-30T13:15:29.471Z,97879.95
2018-09-30T13:17:58.901Z,97874.08
2018-09-30T13:20:28.322Z,97872.09
2018-09-30T13:22:57.717Z,97867.45
2018-09-30T13:25:27.136Z,97857.30
2018-09-30T13:27:57.607Z,97851.89
2018-09-30T13:30:27.092Z,97845.45
2018-09-30T13:32:57.587Z,97848.23
2018-09-30T13:35:27.125Z,97847.33
2018-09-30T13:37:57.516Z,97836.02
2018-09-30T13:40:27.381Z,97841.59
2018-09-30T13:42:57.549Z,97831.85
2018-09-30T13:45:26.975Z,97832.61
2018-09-30T13:47:57.600Z,97840.28
2018-09-30T13:50:27.128Z,97834.89
2018-09-30T13:52:57.550Z,97833.23
2018-09-30T13:55:26.956Z,97830.52
2018-09-30T13:57:57.611Z,97829.83
2018-09-30T14:00:27.044Z,97824.56
2018-09-30T14:02:57.703Z,97819.86
2018-09-30T14:05:27.131Z,97817.02
2018-09-30T14:07:57.531Z,97815.23
2018-09-30T14:10:26.960Z,97810.48
2018-09-30T14:12:57.632Z,97804.25
2018-09-30T14:15:27.115Z,97801.64
2018-09-30T14:17:57.555Z,97798.38
2018-09-30T14:20:26.967Z,97799.72
2018-09-30T14:22:57.613Z,97793.75
2018-09-30T14:25:27.039Z,97795.58
2018-09-30T14:27:57.694Z,97795.39
2018-09-30T14:30:27.162Z,97793.69
2018-09-30T14:32:57.694Z,97798.50
2018-09-30T14:35:27.096Z,97798.11
2018-09-30T14:37:57.635Z,97792.36
2018-09-30T14:40:27.164Z,97791.92
2018-09-30T14:42:57.573Z,97788.23
2018-09-30T14:45:27.001Z,97785.23
2018-09-30T14:47:57.687Z,97789.14
2018-09-30T14:50:27.063Z,97789.09
2018-09-30T14:52:57.728Z,97788.92
2018-09-30T14:55:27.155Z,97785.23
2018-09-30T14:57:57.587Z,97780.34
2018-09-30T15:00:27.104Z,97777.86
2018-09-30T15:02:57.611Z,97776.77
2018-09-30T15:05:27.032Z,97771.52
2018-09-30T15:07:57.675Z,97775.45
2018-09-30T15:10:27.114Z,97769.30
2018-09-30T15:12:57.612Z,97764.62
2018-09-30T15:15:27.029Z,97767.47
2018-09-30T15:17:57.656Z,97766.12
2018-09-30T15:20:27.076Z,97765.11
2018-09-30T15:22:57.579Z,97760.89
2018-09-30T15:25:26.991Z,97755.66
2018-09-30T15:27:57.708Z,97747.84
2018-09-30T15:30:27.100Z,97750.34
2018-09-30T15:32:57.832Z,97754.30
2018-09-30T15:35:27.276Z,97755.96
2018-09-30T15:37:57.804Z,97745.77
2018-09-30T15:40:27.207Z,97750.93
2018-09-30T15:42:57.931Z,97749.16
2018-09-30T15:45:27.293Z,97757.23
2018-09-30T15:47:57.831Z,97753.95
2018-09-30T15:50:27.324Z,97755.30
2018-09-30T15:52:57.827Z,97755.76
2018-09-30T15:55:27.239Z,97745.67
2018-09-30T15:57:57.895Z,97744.20
2018-09-30T16:00:27.295Z,97742.99
2018-09-30T16:02:58.011Z,97741.96
2018-09-30T16:05:27.492Z,97747.65
2018-09-30T16:07:57.975Z,97752.31
2018-09-30T16:10:27.424Z,97753.23
2018-09-30T16:12:58.073Z,97751.42
2018-09-30T16:15:27.492Z,97749.12
2018-09-30T16:17:58.091Z,97750.83
2018-09-30T16:20:27.514Z,97751.81
2018-09-30T16:22:57.956Z,97758.99
2018-09-30T16:25:27.391Z,97759.75
2018-09-30T16:27:57.944Z,97751.42
2018-09-30T16:30:27.502Z,97757.14
2018-09-30T16:32:57.916Z,97744.75
2018-09-30T16:35:28.262Z,97755.20
2018-09-30T16:37:59.081Z,97753.96
2018-09-30T16:40:29.579Z,97750.41
2018-09-30T16:42:59.031Z,97748.08
2018-09-30T16:45:29.409Z,97749.34
2018-09-30T16:47:58.894Z,97750.84
2018-09-30T16:50:30.200Z,97747.77
2018-09-30T16:53:00.803Z,97750.30
2018-09-30T16:55:31.182Z,97755.86
2018-09-30T16:58:00.720Z,97763.52
2018-09-30T17:00:30.144Z,97756.07
2018-09-30T17:02:59.557Z,97760.70
2018-09-30T17:05:28.989Z,97766.18
2018-09-30T17:07:58.596Z,97761.21
2018-09-30T17:10:28.068Z,97766.56
2018-09-30T17:12:58.226Z,97768.43
2018-09-30T17:15:27.732Z,97763.91
2018-09-30T17:17:58.207Z,97769.67
2018-09-30T17:20:27.717Z,97772.28
2018-09-30T17:22:58.198Z,97763.80
2018-09-30T17:25:27.879Z,97769.45
2018-09-30T17:27:58.455Z,97768.95
2018-09-30T17:30:30.490Z,97768.11
2018-09-30T17:33:01.046Z,97766.80
2018-09-30T17:35:31.540Z,97775.59
2018-09-30T17:38:01.314Z,97777.80
2018-09-30T17:40:32.144Z,97783.02
2018-09-30T17:43:03.154Z,97783.28
2018-09-30T17:45:33.719Z,97781.47
2018-09-30T17:48:05.289Z,97782.96
2018-09-30T17:50:38.227Z,97782.60
2018-09-30T17:53:10.814Z,97780.73
2018-09-30T17:55:43.646Z,97785.44
2018-09-30T17:58:16.234Z,97793.05
2018-09-30T18:00:49.457Z,97797.69
2018-09-30T18:03:22.109Z,97796.10
2018-09-30T18:05:55.099Z,97795.30
2018-09-30T18:08:28.781Z,97796.53
2018-09-30T18:11:01.717Z,97794.86
2018-09-30T18:13:34.403Z,97794.62
2018-09-30T18:16:07.582Z,97798.67
2018-09-30T18:18:40.307Z,97796.45
2018-09-30T18:21:13.648Z,97801.97
2018-09-30T18:23:46.326Z,97800.75
2018-09-30T18:26:20.520Z,97793.52
2018-09-30T18:28:53.229Z,97798.02
2018-09-30T18:31:27.035Z,97800.02
2018-09-30T18:33:59.908Z,97807.02
2018-09-30T18:36:32.776Z,97805.33
2018-09-30T18:39:07.229Z,97808.97
2018-09-30T18:41:40.360Z,97811.45
2018-09-30T18:44:13.382Z,97815.75
2018-09-30T18:46:46.584Z,97814.37
2018-09-30T18:49:19.462Z,97816.11
2018-09-30T18:51:52.599Z,97820.75
2018-09-30T18:54:25.546Z,97825.05
2018-09-30T18:56:59.694Z,97824.30
2018-09-30T18:59:32.594Z,97818.67
2018-09-30T19:02:05.897Z,97821.82
2018-09-30T19:04:39.043Z,97825.19
2018-09-30T19:07:12.473Z,97823.50
2018-09-30T19:09:45.916Z,97826.03
2018-09-30T19:12:19.112Z,97817.61
2018-09-30T19:14:52.028Z,97817.21
2018-09-30T19:17:24.945Z,97813.18
2018-09-30T19:19:58.157Z,97812.55
2018-09-30T19:22:31.383Z,97809.13
2018-09-30T19:25:04.411Z,97814.28
2018-09-30T19:27:38.747Z,97811.05
2018-09-30T19:30:11.614Z,97793.81
2018-09-30T19:32:44.578Z,97812.55
2018-09-30T19:35:17.685Z,97812.56
2018-09-30T19:37:50.835Z,97804.13
2018-09-30T19:40:23.969Z,97805.98
2018-09-30T19:42:58.682Z,97806.52
2018-09-30T19:45:31.573Z,97805.71
2018-09-30T19:48:04.535Z,97808.28
2018-09-30T19:50:37.661Z,97806.76
2018-09-30T19:53:11.407Z,97809.08
2018-09-30T19:55:44.367Z,97807.47
2018-09-30T19:58:17.449Z,97809.38
2018-09-30T20:00:50.466Z,97805.87
2018-09-30T20:03:23.585Z,97806.84
2018-09-30T20:05:56.370Z,97810.85
2018-09-30T20:08:29.620Z,97805.28
2018-09-30T20:11:02.593Z,97813.51
2018-09-30T20:13:35.986Z,97810.16
2018-09-30T20:16:09.823Z,97808.64
2018-09-30T20:18:42.730Z,97809.16
2018-09-30T20:21:15.894Z,97816.87
2018-09-30T20:23:48.720Z,97735.38
2018-09-30T20:26:21.858Z,97818.23
2018-09-30T20:28:55.714Z,97813.63
2018-09-30T20:31:28.872Z,97814.14
2018-09-30T20:34:02.102Z,97812.91
2018-09-30T20:36:35.039Z,97808.34
2018-09-30T20:39:08.628Z,97810.48
2018-09-30T20:41:41.667Z,97766.78
2018-09-30T20:44:13.336Z,97804.66
2018-09-30T20:46:44.267Z,97809.78
2018-09-30T20:49:14.225Z,97808.53
2018-09-30T20:51:43.943Z,97809.83
2018-09-30T20:54:13.402Z,97804.72
2018-09-30T20:56:42.828Z,97798.80
2018-09-30T20:59:12.286Z,97797.16
2018-09-30T21:01:41.735Z,97801.02
2018-09-30T21:04:11.155Z,97794.60
2018-09-30T21:06:42.789Z,97789.48
2018-09-30T21:09:14.797Z,97788.23
2018-09-30T21:11:44.232Z,97795.93
2018-09-30T21:14:13.628Z,97788.29
2018-09-30T21:16:43.046Z,97787.87
2018-09-30T21:19:15.370Z,97791.73
2018-09-30T21:21:44.783Z,97793.02
2018-09-30T21:24:14.180Z,97790.14
2018-09-30T21:26:43.575Z,97792.27
2018-09-30T21:29:13.008Z,97789.73
2018-09-30T21:31:42.407Z,97786.84
2018-09-30T21:34:11.916Z,97783.02
2018-09-30T21:36:41.296Z,97779.16
2018-09-30T21:39:11.679Z,97775.30
2018-09-30T21:41:41.121Z,97772.33
2018-09-30T21:44:10.615Z,97771.08
2018-09-30T21:46:40.015Z,97768.09
2018-09-30T21:49:09.443Z,97772.81
2018-09-30T21:51:38.829Z,97771.92
2018-09-30T21:54:08.231Z,97767.23
2018-09-30T21:56:37.636Z,97766.40
2018-09-30T21:59:07.239Z,97766.00
2018-09-30T22:01:36.806Z,97757.91
2018-09-30T22:04:06.164Z,97763.51
2018-09-30T22:06:35.587Z,97760.09
2018-09-30T22:09:05.986Z,97762.30
2018-09-30T22:11:35.402Z,97759.31
2018-09-30T22:14:04.815Z,97758.89
2018-09-30T22:16:34.239Z,97761.00
2018-09-30T22:19:03.672Z,97761.02
2018-09-30T22:21:33.067Z,97757.20
2018-09-30T22:24:02.507Z,97753.39
2018-09-30T22:26:31.928Z,97755.06
2018-09-30T22:29:01.328Z,97749.10
2018-09-30T22:31:30.725Z,97752.95
2018-09-30T22:34:00.131Z,97751.23
2018-09-30T22:36:29.542Z,97749.97
2018-09-30T22:38:58.949Z,97754.21
2018-09-30T22:41:28.451Z,97747.00
2018-09-30T22:43:57.847Z,97748.69
2018-09-30T22:46:27.271Z,97746.55
2018-09-30T22:48:56.739Z,97753.78
2018-09-30T22:51:26.157Z,97759.31
2018-09-30T22:53:55.582Z,97758.03
2018-09-30T22:56:24.976Z,97755.49
2018-09-30T22:58:54.372Z,97755.47
2018-09-30T23:01:23.773Z,97758.45
2018-09-30T23:03:53.188Z,97758.86
2018-09-30T23:06:22.585Z,97762.27
2018-09-30T23:08:51.996Z,97763.12
2018-09-30T23:11:21.420Z,97769.05
2018-09-30T23:13:50.822Z,97771.98
2018-09-30T23:16:20.220Z,97768.59
2018-09-30T23:18:49.708Z,97766.44
2018-09-30T23:21:19.387Z,97762.13
2018-09-30T23:23:48.998Z,97770.20
2018-09-30T23:26:18.703Z,97770.07
2018-09-30T23:28:48.244Z,97767.94
2018-09-30T23:31:17.852Z,97769.71
2018-09-30T23:33:47.498Z,97768.43
2018-09-30T23:36:17.201Z,97769.30
2018-09-30T23:38:46.804Z,97767.61
2018-09-30T23:41:16.212Z,97767.17
2018-09-30T23:43:45.621Z,97771.83
2018-09-30T23:46:15.012Z,97763.77
2018-09-30T23:48:44.399Z,97761.25
2018-09-30T23:51:13.812Z,97761.25
2018-09-30T23:53:43.296Z,97757.84
2018-09-30T23:56:12.713Z,97750.61
2018-09-30T23:58:42.123Z,97755.70
